Time,TemperatureF,DewpointF,PressureIn,WindDirection,WindDirectionDegrees,WindSpeedMPH,WindSpeedGustMPH,Humidity,HourlyPrecipIn,Conditions,Clouds,dailyrainin,SoftwareType,DateUTC
2013-02-03 00:00:00,23.9,21.7,29.94,WSW,257,2.0,3.0,91,0.00,,---,0.00,VWS V14.00,2013-02-03 05:00:00,
2013-02-03 00:01:00,23.9,21.7,29.94,WSW,257,2.0,4.0,91,0.00,,---,0.00,VWS V14.00,2013-02-03 05:01:00,
2013-02-03 00:02:00,23.9,21.7,29.94,WSW,257,2.0,4.0,91,0.00,,---,0.00,VWS V14.00,2013-02-03 05:02:00,
2013-02-03 00:05:00,23.9,21.7,29.94,WSW,257,2.0,4.0,91,0.00,,---,0.00,VWS V14.00,2013-02-03 05:05:00,
2013-02-03 00:10:00,23.9,21.7,29.94,WSW,257,4.0,5.0,91,0.00,,---,0.00,VWS V14.00,2013-02-03 05:10:00,
2013-02-03 00:15:00,23.9,21.7,29.94,WSW,257,2.0,5.0,91,0.00,,---,0.00,VWS V14.00,2013-02-03 05:15:00,
2013-02-03 00:20:00,23.9,21.7,29.94,WSW,257,1.0,4.0,91,0.00,,---,0.00,VWS V14.00,2013-02-03 05:20:00,
2013-02-03 00:26:00,23.9,21.7,29.93,SW,236,3.0,6.0,91,0.00,,---,0.00,VWS V14.00,2013-02-03 05:26:00,
2013-02-03 00:31:00,23.9,21.7,29.93,West,263,2.0,6.0,91,0.00,,---,0.00,VWS V14.00,2013-02-03 05:31:00,
2013-02-03 00:36:00,23.9,21.7,29.93,West,261,5.0,5.0,91,0.00,,---,0.00,VWS V14.00,2013-02-03 05:36:00,
2013-02-03 00:41:00,23.9,21.7,29.93,West,261,3.0,5.0,91,0.00,,---,0.00,VWS V14.00,2013-02-03 05:41:00,
2013-02-03 00:46:00,23.8,21.6,29.93,West,268,2.0,3.0,91,0.00,,---,0.00,VWS V14.00,2013-02-03 05:46:00,
2013-02-03 00:51:00,23.8,21.6,29.93,West,274,6.0,7.0,91,0.00,,---,0.00,VWS V14.00,2013-02-03 05:51:00,
2013-02-03 00:56:00,23.8,21.6,29.93,WNW,292,3.0,6.0,91,0.00,,---,0.00,VWS V14.00,2013-02-03 05:56:00,
2013-02-03 01:01:00,23.8,21.6,29.93,WNW,298,2.0,6.0,91,0.00,,---,0.00,VWS V14.00,2013-02-03 06:01:00,
2013-02-03 01:06:00,23.8,21.3,29.93,NW,312,1.0,3.0,90,0.00,,---,0.00,VWS V14.00,2013-02-03 06:06:00,
2013-02-03 01:12:00,23.6,21.1,29.93,WNW,301,1.0,6.0,90,0.00,,---,0.00,VWS V14.00,2013-02-03 06:12:00,
2013-02-03 01:17:00,23.5,21.0,29.93,WNW,298,7.0,7.0,90,0.00,,---,0.00,VWS V14.00,2013-02-03 06:17:00,
2013-02-03 01:22:00,23.3,20.5,29.93,NW,306,2.0,7.0,89,0.00,,---,0.00,VWS V14.00,2013-02-03 06:22:00,
2013-02-03 01:27:00,23.2,20.5,29.92,WNW,289,2.0,7.0,89,0.00,,---,0.00,VWS V14.00,2013-02-03 06:27:00,
2013-02-03 01:32:00,23.0,20.2,29.92,WNW,289,0.0,7.0,89,0.00,,---,0.00,VWS V14.00,2013-02-03 06:32:00,
2013-02-03 01:37:00,23.0,20.2,29.92,WNW,294,4.0,6.0,89,0.00,,---,0.00,VWS V14.00,2013-02-03 06:37:00,
2013-02-03 01:42:00,22.9,19.9,29.92,NW,305,3.0,6.0,88,0.00,,---,0.00,VWS V14.00,2013-02-03 06:42:00,
2013-02-03 01:47:00,22.9,19.9,29.92,WNW,296,2.0,4.0,88,0.00,,---,0.00,VWS V14.00,2013-02-03 06:47:00,
2013-02-03 01:52:00,22.9,19.9,29.92,WNW,296,1.0,4.0,88,0.00,,---,0.00,VWS V14.00,2013-02-03 06:52:00,
2013-02-03 01:57:00,22.9,19.9,29.92,West,270,2.0,3.0,88,0.00,,---,0.00,VWS V14.00,2013-02-03 06:57:00,
2013-02-03 02:02:00,22.7,19.7,29.92,West,271,3.0,3.0,88,0.00,,---,0.00,VWS V14.00,2013-02-03 07:02:00,
2013-02-03 02:08:00,22.7,19.7,29.92,West,271,1.0,2.0,88,0.00,,---,0.00,VWS V14.00,2013-02-03 07:08:00,
2013-02-03 02:13:00,22.7,19.7,29.92,West,270,2.0,3.0,88,0.00,,---,0.00,VWS V14.00,2013-02-03 07:13:00,
2013-02-03 02:18:00,22.7,19.7,29.92,West,270,1.0,2.0,88,0.00,,---,0.00,VWS V14.00,2013-02-03 07:18:00,
2013-02-03 02:23:00,22.7,19.7,29.92,West,270,1.0,2.0,88,0.00,,---,0.00,VWS V14.00,2013-02-03 07:23:00,
2013-02-03 02:28:00,22.7,19.7,29.91,West,270,1.0,2.0,88,0.00,,---,0.00,VWS V14.00,2013-02-03 07:28:00,
2013-02-03 02:33:00,22.7,19.7,29.91,West,270,3.0,3.0,88,0.00,,---,0.00,VWS V14.00,2013-02-03 07:33:00,
2013-02-03 02:38:00,22.7,19.7,29.91,West,270,1.0,2.0,88,0.00,,---,0.00,VWS V14.00,2013-02-03 07:38:00,
2013-02-03 02:43:00,22.7,19.7,29.91,West,270,1.0,2.0,88,0.00,,---,0.00,VWS V14.00,2013-02-03 07:43:00,
2013-02-03 02:48:00,22.7,19.7,29.91,West,270,1.0,2.0,88,0.00,,---,0.00,VWS V14.00,2013-02-03 07:48:00,
2013-02-03 02:53:00,22.7,19.7,29.91,West,270,1.0,2.0,88,0.00,,---,0.00,VWS V14.00,2013-02-03 07:53:00,
2013-02-03 02:58:00,22.7,19.7,29.91,West,270,1.0,1.0,88,0.00,,---,0.00,VWS V14.00,2013-02-03 07:58:00,
2013-02-03 03:03:00,22.5,19.5,29.91,West,270,0.0,3.0,88,0.00,,---,0.00,VWS V14.00,2013-02-03 08:03:00,
2013-02-03 03:09:00,22.5,19.5,29.91,West,270,3.0,6.0,88,0.00,,---,0.00,VWS V14.00,2013-02-03 08:09:00,
2013-02-03 03:14:00,22.7,20.0,29.90,WNW,295,2.0,6.0,89,0.00,,---,0.00,VWS V14.00,2013-02-03 08:14:00,
2013-02-03 03:19:00,22.7,19.7,29.90,WNW,294,2.0,3.0,88,0.00,,---,0.00,VWS V14.00,2013-02-03 08:19:00,
2013-02-03 03:24:00,22.7,19.7,29.90,WNW,294,3.0,3.0,88,0.00,,---,0.00,VWS V14.00,2013-02-03 08:24:00,
2013-02-03 03:29:00,22.7,19.7,29.90,WSW,256,2.0,4.0,88,0.00,,---,0.00,VWS V14.00,2013-02-03 08:29:00,
2013-02-03 03:34:00,22.7,19.7,29.90,WSW,256,2.0,4.0,88,0.00,,---,0.00,VWS V14.00,2013-02-03 08:34:00,
2013-02-03 03:39:00,22.7,19.7,29.90,WSW,256,2.0,4.0,88,0.00,,---,0.00,VWS V14.00,2013-02-03 08:39:00,
2013-02-03 03:44:00,22.7,19.7,29.89,WSW,256,1.0,4.0,88,0.00,,---,0.00,VWS V14.00,2013-02-03 08:44:00,
2013-02-03 03:49:00,22.7,19.7,29.89,WSW,256,1.0,3.0,88,0.00,,---,0.00,VWS V14.00,2013-02-03 08:49:00,
2013-02-03 03:54:00,22.7,19.7,29.89,WSW,256,1.0,3.0,88,0.00,,---,0.00,VWS V14.00,2013-02-03 08:54:00,
2013-02-03 03:59:00,22.5,19.5,29.88,WSW,256,1.0,2.0,88,0.00,,---,0.00,VWS V14.00,2013-02-03 08:59:00,
2013-02-03 04:05:00,22.5,19.5,29.88,WSW,256,1.0,2.0,88,0.00,,---,0.00,VWS V14.00,2013-02-03 09:05:00,
2013-02-03 04:10:00,22.5,19.5,29.88,WSW,256,0.0,1.0,88,0.00,,---,0.00,VWS V14.00,2013-02-03 09:10:00,
2013-02-03 04:15:00,22.4,19.4,29.88,WSW,256,1.0,2.0,88,0.00,,---,0.00,VWS V14.00,2013-02-03 09:15:00,
2013-02-03 04:20:00,22.4,19.4,29.88,WSW,256,2.0,3.0,88,0.00,,---,0.00,VWS V14.00,2013-02-03 09:20:00,
2013-02-03 04:25:00,22.4,19.4,29.88,WSW,256,2.0,3.0,88,0.00,,---,0.00,VWS V14.00,2013-02-03 09:25:00,
2013-02-03 04:30:00,22.4,19.4,29.88,WSW,256,1.0,5.0,88,0.00,,---,0.00,VWS V14.00,2013-02-03 09:30:00,
2013-02-03 04:35:00,22.4,19.4,29.88,WSW,256,2.0,5.0,88,0.00,,---,0.00,VWS V14.00,2013-02-03 09:35:00,
2013-02-03 04:40:00,22.4,19.4,29.88,WSW,256,2.0,3.0,88,0.00,,---,0.00,VWS V14.00,2013-02-03 09:40:00,
2013-02-03 04:45:00,22.4,19.4,29.88,WSW,256,1.0,3.0,88,0.00,,---,0.00,VWS V14.00,2013-02-03 09:45:00,
2013-02-03 04:50:00,22.4,19.4,29.88,WSW,256,1.0,3.0,88,0.00,,---,0.00,VWS V14.00,2013-02-03 09:50:00,
2013-02-03 04:55:00,22.4,19.7,29.87,WSW,256,2.0,3.0,89,0.00,,---,0.00,VWS V14.00,2013-02-03 09:55:00,
2013-02-03 05:01:00,22.4,19.7,29.87,WSW,256,2.0,2.0,89,0.00,,---,0.00,VWS V14.00,2013-02-03 10:01:00,
2013-02-03 05:06:00,22.2,19.5,29.87,WSW,256,1.0,2.0,89,0.00,,---,0.00,VWS V14.00,2013-02-03 10:06:00,
2013-02-03 05:11:00,22.2,19.5,29.87,WSW,256,1.0,2.0,89,0.00,,---,0.00,VWS V14.00,2013-02-03 10:11:00,
2013-02-03 05:16:00,22.2,19.5,29.87,WSW,256,2.0,2.0,89,0.00,,---,0.00,VWS V14.00,2013-02-03 10:16:00,
2013-02-03 05:21:00,22.1,19.4,29.87,WSW,256,1.0,2.0,89,0.00,,---,0.00,VWS V14.00,2013-02-03 10:21:00,
2013-02-03 05:26:00,22.1,19.4,29.87,NNW,328,3.0,3.0,89,0.00,,---,0.00,VWS V14.00,2013-02-03 10:26:00,
2013-02-03 05:31:00,21.6,18.9,29.87,North,357,3.0,5.0,89,0.00,,---,0.00,VWS V14.00,2013-02-03 10:31:00,
2013-02-03 05:36:00,21.0,18.3,29.87,North,357,3.0,3.0,89,0.00,,---,0.00,VWS V14.00,2013-02-03 10:36:00,
2013-02-03 05:41:00,20.5,17.8,29.87,North,357,1.0,3.0,89,0.00,,---,0.00,VWS V14.00,2013-02-03 10:41:00,
2013-02-03 05:46:00,20.2,17.5,29.87,North,0,2.0,3.0,89,0.00,,---,0.00,VWS V14.00,2013-02-03 10:46:00,
2013-02-03 05:51:00,19.7,17.0,29.87,NNW,343,1.0,6.0,89,0.00,,---,0.00,VWS V14.00,2013-02-03 10:51:00,
2013-02-03 05:56:00,19.4,16.7,29.87,NNW,343,1.0,2.0,89,0.00,,---,0.00,VWS V14.00,2013-02-03 10:56:00,
2013-02-03 06:02:00,19.1,16.4,29.87,NNW,343,3.0,3.0,89,0.00,,---,0.00,VWS V14.00,2013-02-03 11:02:00,
2013-02-03 06:07:00,18.9,16.2,29.87,NNW,343,0.0,2.0,89,0.00,,---,0.00,VWS V14.00,2013-02-03 11:07:00,
2013-02-03 06:12:00,18.9,16.2,29.86,NNW,343,0.0,2.0,89,0.00,,---,0.00,VWS V14.00,2013-02-03 11:12:00,
2013-02-03 06:17:00,18.8,16.1,29.86,NNW,343,0.0,0.0,89,0.00,,---,0.00,VWS V14.00,2013-02-03 11:17:00,
2013-02-03 06:22:00,18.6,15.9,29.86,NNW,343,0.0,1.0,89,0.00,,---,0.00,VWS V14.00,2013-02-03 11:22:00,
2013-02-03 06:27:00,18.6,15.6,29.86,NNW,343,0.0,1.0,88,0.00,,---,0.00,VWS V14.00,2013-02-03 11:27:00,
2013-02-03 06:32:00,18.4,15.4,29.86,NNW,343,0.0,1.0,88,0.00,,---,0.00,VWS V14.00,2013-02-03 11:32:00,
2013-02-03 06:37:00,18.3,15.4,29.86,NNW,343,0.0,0.0,88,0.00,,---,0.00,VWS V14.00,2013-02-03 11:37:00,
2013-02-03 06:42:00,18.1,15.1,29.86,NNW,343,0.0,0.0,88,0.00,,---,0.00,VWS V14.00,2013-02-03 11:42:00,
2013-02-03 06:47:00,18.1,15.1,29.86,NNW,343,0.0,1.0,88,0.00,,---,0.00,VWS V14.00,2013-02-03 11:47:00,
2013-02-03 06:53:00,18.1,15.1,29.86,NNW,343,0.0,1.0,88,0.00,,---,0.00,VWS V14.00,2013-02-03 11:53:00,
2013-02-03 06:58:00,18.1,15.4,29.86,NNW,343,0.0,1.0,89,0.00,,---,0.00,VWS V14.00,2013-02-03 11:58:00,
2013-02-03 07:03:00,18.1,15.4,29.86,NNW,343,0.0,1.0,89,0.00,,---,0.00,VWS V14.00,2013-02-03 12:03:00,
2013-02-03 07:08:00,18.1,15.4,29.86,NNW,343,0.0,0.0,89,0.00,,---,0.00,VWS V14.00,2013-02-03 12:08:00,
2013-02-03 07:13:00,18.1,15.4,29.86,NNW,343,0.0,0.0,89,0.00,,---,0.00,VWS V14.00,2013-02-03 12:13:00,
2013-02-03 07:18:00,18.1,15.4,29.86,NNW,343,0.0,0.0,89,0.00,,---,0.00,VWS V14.00,2013-02-03 12:18:00,
2013-02-03 07:23:00,18.1,15.4,29.86,NNW,343,0.0,0.0,89,0.00,,---,0.00,VWS V14.00,2013-02-03 12:23:00,
2013-02-03 07:28:00,18.1,15.4,29.86,NNW,343,0.0,0.0,89,0.00,,---,0.00,VWS V14.00,2013-02-03 12:28:00,
2013-02-03 07:33:00,18.1,15.4,29.86,NNW,343,0.0,0.0,89,0.00,,---,0.00,VWS V14.00,2013-02-03 12:33:00,
2013-02-03 07:39:00,18.1,15.4,29.86,NNW,343,0.0,0.0,89,0.00,,---,0.00,VWS V14.00,2013-02-03 12:39:00,
2013-02-03 07:44:00,18.1,15.4,29.86,NNW,343,0.0,0.0,89,0.00,,---,0.00,VWS V14.00,2013-02-03 12:44:00,
2013-02-03 07:49:00,18.1,15.4,29.86,NNW,343,0.0,0.0,89,0.00,,---,0.00,VWS V14.00,2013-02-03 12:49:00,
2013-02-03 07:54:00,18.3,15.6,29.86,NNW,343,0.0,0.0,89,0.00,,---,0.00,VWS V14.00,2013-02-03 12:54:00,
2013-02-03 07:59:00,18.3,15.4,29.87,NNW,343,0.0,0.0,88,0.00,,---,0.00,VWS V14.00,2013-02-03 12:59:00,
2013-02-03 08:04:00,18.3,15.4,29.87,NNW,343,0.0,1.0,88,0.00,,---,0.00,VWS V14.00,2013-02-03 13:04:00,
2013-02-03 08:09:00,18.3,15.4,29.87,NNW,343,0.0,0.0,88,0.00,,---,0.00,VWS V14.00,2013-02-03 13:09:00,
2013-02-03 08:14:00,18.3,15.4,29.87,NNW,343,0.0,1.0,88,0.00,,---,0.00,VWS V14.00,2013-02-03 13:14:00,
2013-02-03 08:19:00,18.3,15.4,29.87,NNW,343,0.0,1.0,88,0.00,,---,0.00,VWS V14.00,2013-02-03 13:19:00,
2013-02-03 08:24:00,18.3,15.4,29.87,NNW,343,2.0,3.0,88,0.00,,---,0.00,VWS V14.00,2013-02-03 13:24:00,
2013-02-03 08:29:00,18.4,15.2,29.87,NNW,343,0.0,1.0,87,0.00,,---,0.00,VWS V14.00,2013-02-03 13:29:00,
2013-02-03 08:34:00,18.4,15.2,29.87,NNW,343,0.0,1.0,87,0.00,,---,0.00,VWS V14.00,2013-02-03 13:34:00,
2013-02-03 08:40:00,18.4,14.9,29.87,NNW,343,1.0,2.0,86,0.00,,---,0.00,VWS V14.00,2013-02-03 13:40:00,
2013-02-03 08:45:00,18.4,14.9,29.87,NNW,343,2.0,2.0,86,0.00,,---,0.00,VWS V14.00,2013-02-03 13:45:00,
2013-02-03 08:50:00,18.4,14.6,29.87,NNW,343,0.0,3.0,85,0.00,,---,0.00,VWS V14.00,2013-02-03 13:50:00,
2013-02-03 08:55:00,18.4,14.6,29.87,NNW,343,1.0,3.0,85,0.00,,---,0.00,VWS V14.00,2013-02-03 13:55:00,
2013-02-03 09:00:00,18.4,14.4,29.87,NNW,343,1.0,3.0,84,0.00,,---,0.00,VWS V14.00,2013-02-03 14:00:00,
2013-02-03 09:05:00,18.4,14.4,29.87,NNW,343,0.0,3.0,84,0.00,,---,0.00,VWS V14.00,2013-02-03 14:05:00,
2013-02-03 09:10:00,18.6,14.6,29.87,NNW,343,0.0,1.0,84,0.00,,---,0.00,VWS V14.00,2013-02-03 14:10:00,
2013-02-03 09:15:00,18.6,14.3,29.87,NNW,343,2.0,2.0,83,0.00,,---,0.00,VWS V14.00,2013-02-03 14:15:00,
2013-02-03 09:20:00,18.8,14.5,29.87,NNW,343,0.0,2.0,83,0.00,,---,0.00,VWS V14.00,2013-02-03 14:20:00,
2013-02-03 09:26:00,18.8,14.5,29.87,NNW,343,0.0,2.0,83,0.00,,---,0.00,VWS V14.00,2013-02-03 14:26:00,
2013-02-03 09:31:00,18.8,14.5,29.87,NNW,343,2.0,3.0,83,0.00,,---,0.00,VWS V14.00,2013-02-03 14:31:00,
2013-02-03 09:36:00,18.6,14.3,29.87,NNW,343,2.0,2.0,83,0.00,,---,0.00,VWS V14.00,2013-02-03 14:36:00,
2013-02-03 09:41:00,18.6,14.3,29.86,NNW,343,1.0,3.0,83,0.00,,---,0.00,VWS V14.00,2013-02-03 14:41:00,
2013-02-03 09:46:00,18.8,14.5,29.86,NNW,343,1.0,2.0,83,0.00,,---,0.00,VWS V14.00,2013-02-03 14:46:00,
2013-02-03 09:51:00,18.9,14.9,29.86,NNW,343,2.0,3.0,84,0.00,,---,0.00,VWS V14.00,2013-02-03 14:51:00,
2013-02-03 09:56:00,18.9,14.9,29.86,NNW,337,2.0,3.0,84,0.00,,---,0.00,VWS V14.00,2013-02-03 14:56:00,
2013-02-03 10:01:00,19.1,15.1,29.86,NNW,337,3.0,4.0,84,0.00,,---,0.00,VWS V14.00,2013-02-03 15:01:00,
2013-02-03 10:07:00,19.4,15.1,29.86,NNW,329,2.0,2.0,83,0.00,,---,0.00,VWS V14.00,2013-02-03 15:07:00,
2013-02-03 10:12:00,19.5,15.5,29.86,NNW,329,1.0,3.0,84,0.00,,---,0.00,VWS V14.00,2013-02-03 15:12:00,
2013-02-03 10:17:00,19.5,15.2,29.86,NW,323,3.0,3.0,83,0.00,,---,0.00,VWS V14.00,2013-02-03 15:17:00,
2013-02-03 10:22:00,19.5,15.2,29.86,NNW,330,5.0,5.0,83,0.00,,---,0.00,VWS V14.00,2013-02-03 15:22:00,
2013-02-03 10:27:00,19.5,15.2,29.86,NW,306,4.0,6.0,83,0.00,,---,0.00,VWS V14.00,2013-02-03 15:27:00,
2013-02-03 10:32:00,19.4,15.1,29.86,WNW,291,4.0,6.0,83,0.00,,---,0.00,VWS V14.00,2013-02-03 15:32:00,
2013-02-03 10:37:00,19.5,15.2,29.86,West,275,5.0,6.0,83,0.00,,---,0.00,VWS V14.00,2013-02-03 15:37:00,
2013-02-03 10:43:00,19.7,15.7,29.87,NNW,344,5.0,6.0,84,0.00,,---,0.00,VWS V14.00,2013-02-03 15:43:00,
2013-02-03 10:48:00,20.2,16.1,29.87,NNW,337,2.0,5.0,84,0.00,,---,0.00,VWS V14.00,2013-02-03 15:48:00,
2013-02-03 10:53:00,20.3,16.0,29.87,WNW,282,5.0,7.0,83,0.00,,---,0.00,VWS V14.00,2013-02-03 15:53:00,
2013-02-03 10:58:00,20.2,15.9,29.87,West,281,2.0,6.0,83,0.00,,---,0.00,VWS V14.00,2013-02-03 15:58:00,
2013-02-03 11:03:00,20.3,16.0,29.87,WNW,296,5.0,6.0,83,0.00,,---,0.00,VWS V14.00,2013-02-03 16:03:00,
2013-02-03 11:08:00,20.3,16.0,29.87,North,356,2.0,6.0,83,0.00,,---,0.00,VWS V14.00,2013-02-03 16:08:00,
2013-02-03 11:13:00,20.5,15.9,29.87,WNW,294,4.0,7.0,82,0.00,,---,0.00,VWS V14.00,2013-02-03 16:13:00,
2013-02-03 11:18:00,20.5,16.2,29.87,WSW,251,5.0,6.0,83,0.00,,---,0.00,VWS V14.00,2013-02-03 16:18:00,
2013-02-03 11:24:00,20.5,16.2,29.87,West,267,2.0,6.0,83,0.00,,---,0.00,VWS V14.00,2013-02-03 16:24:00,
2013-02-03 11:29:00,20.5,16.2,29.87,WNW,295,3.0,6.0,83,0.00,,---,0.00,VWS V14.00,2013-02-03 16:29:00,
2013-02-03 11:34:00,20.3,16.0,29.87,NW,309,2.0,8.0,83,0.00,,---,0.00,VWS V14.00,2013-02-03 16:34:00,
2013-02-03 11:39:00,20.6,16.3,29.87,WNW,289,2.0,6.0,83,0.00,,---,0.00,VWS V14.00,2013-02-03 16:39:00,
2013-02-03 11:44:00,20.6,16.3,29.87,WNW,291,5.0,7.0,83,0.00,,---,0.00,VWS V14.00,2013-02-03 16:44:00,
2013-02-03 11:49:00,20.5,16.2,29.87,West,271,5.0,7.0,83,0.00,,---,0.00,VWS V14.00,2013-02-03 16:49:00,
2013-02-03 11:54:00,20.5,16.2,29.87,WNW,284,7.0,8.0,83,0.00,,---,0.00,VWS V14.00,2013-02-03 16:54:00,
2013-02-03 12:00:00,20.3,16.0,29.86,NW,306,6.0,8.0,83,0.00,,---,0.00,VWS V14.00,2013-02-03 17:00:00,
2013-02-03 12:05:00,20.5,16.2,29.86,West,267,7.0,8.0,83,0.00,,---,0.00,VWS V14.00,2013-02-03 17:05:00,
2013-02-03 12:10:00,20.3,15.7,29.86,NW,322,6.0,11.0,82,0.00,,---,0.00,VWS V14.00,2013-02-03 17:10:00,
2013-02-03 12:15:00,20.3,15.4,29.86,WNW,298,8.0,11.0,81,0.00,,---,0.00,VWS V14.00,2013-02-03 17:15:00,
2013-02-03 12:20:00,20.5,15.6,29.86,WNW,302,3.0,11.0,81,0.00,,---,0.00,VWS V14.00,2013-02-03 17:20:00,
2013-02-03 12:25:00,20.5,15.3,29.86,West,268,3.0,11.0,80,0.00,,---,0.00,VWS V14.00,2013-02-03 17:25:00,
2013-02-03 12:30:00,21.0,15.5,29.86,WNW,284,6.0,8.0,79,0.00,,---,0.00,VWS V14.00,2013-02-03 17:30:00,
2013-02-03 12:35:00,20.8,15.0,29.86,WNW,294,5.0,10.0,78,0.00,,---,0.00,VWS V14.00,2013-02-03 17:35:00,
2013-02-03 12:40:00,20.3,14.6,29.86,West,281,7.0,12.0,78,0.00,,---,0.00,VWS V14.00,2013-02-03 17:40:00,
2013-02-03 12:46:00,20.5,14.7,29.86,WNW,289,5.0,5.0,78,0.00,,---,0.00,VWS V14.00,2013-02-03 17:46:00,
2013-02-03 12:51:00,20.6,14.6,29.86,WSW,247,10.0,10.0,77,0.00,,---,0.00,VWS V14.00,2013-02-03 17:51:00,
2013-02-03 12:56:00,20.3,13.7,29.86,NW,305,11.0,14.0,75,0.00,,---,0.00,VWS V14.00,2013-02-03 17:56:00,
2013-02-03 13:01:00,20.2,13.6,29.86,WNW,294,8.0,13.0,75,0.00,,---,0.00,VWS V14.00,2013-02-03 18:01:00,
2013-02-03 13:06:00,20.3,13.7,29.86,West,280,5.0,5.0,75,0.00,,---,0.00,VWS V14.00,2013-02-03 18:06:00,
2013-02-03 13:11:00,20.2,13.2,29.86,WNW,285,6.0,13.0,74,0.00,,---,0.00,VWS V14.00,2013-02-03 18:11:00,
2013-02-03 13:16:00,20.3,13.4,29.86,West,274,6.0,8.0,74,0.00,,---,0.00,VWS V14.00,2013-02-03 18:16:00,
2013-02-03 13:21:00,20.5,13.5,29.86,WNW,296,5.0,10.0,74,0.00,,---,0.00,VWS V14.00,2013-02-03 18:21:00,
2013-02-03 13:26:00,20.8,13.8,29.86,West,268,5.0,6.0,74,0.00,,---,0.00,VWS V14.00,2013-02-03 18:26:00,
2013-02-03 13:32:00,20.8,12.9,29.86,West,281,7.0,13.0,71,0.00,,---,0.00,VWS V14.00,2013-02-03 18:32:00,
2013-02-03 13:37:00,20.8,12.9,29.86,WNW,284,8.0,12.0,71,0.00,,---,0.00,VWS V14.00,2013-02-03 18:37:00,
2013-02-03 13:42:00,20.8,12.6,29.86,WNW,291,7.0,14.0,70,0.00,,---,0.00,VWS V14.00,2013-02-03 18:42:00,
2013-02-03 13:47:00,21.0,13.1,29.86,WNW,282,6.0,10.0,71,0.00,,---,0.00,VWS V14.00,2013-02-03 18:47:00,
2013-02-03 13:52:00,21.1,13.5,29.86,West,278,6.0,10.0,72,0.00,,---,0.00,VWS V14.00,2013-02-03 18:52:00,
2013-02-03 13:57:00,21.0,13.1,29.86,WNW,295,8.0,11.0,71,0.00,,---,0.00,VWS V14.00,2013-02-03 18:57:00,
2013-02-03 14:02:00,21.0,13.1,29.86,WNW,295,6.0,11.0,71,0.00,,---,0.00,VWS V14.00,2013-02-03 19:02:00,
2013-02-03 14:08:00,20.8,12.9,29.86,NW,311,10.0,12.0,71,0.00,,---,0.00,VWS V14.00,2013-02-03 19:08:00,
2013-02-03 14:13:00,20.6,12.7,29.86,WNW,296,6.0,12.0,71,0.00,,---,0.00,VWS V14.00,2013-02-03 19:13:00,
2013-02-03 14:18:00,20.6,12.4,29.86,WNW,301,6.0,13.0,70,0.00,,---,0.00,VWS V14.00,2013-02-03 19:18:00,
2013-02-03 14:23:00,20.5,12.6,29.86,NNW,328,2.0,13.0,71,0.00,,---,0.00,VWS V14.00,2013-02-03 19:23:00,
2013-02-03 14:28:00,20.5,12.6,29.87,WNW,292,5.0,8.0,71,0.00,,---,0.00,VWS V14.00,2013-02-03 19:28:00,
2013-02-03 14:33:00,20.3,12.7,29.87,NNW,333,4.0,8.0,72,0.00,,---,0.00,VWS V14.00,2013-02-03 19:33:00,
2013-02-03 14:38:00,20.2,12.6,29.87,West,280,8.0,12.0,72,0.00,,---,0.00,VWS V14.00,2013-02-03 19:38:00,
2013-02-03 14:43:00,20.2,12.6,29.87,West,268,6.0,12.0,72,0.00,,---,0.00,VWS V14.00,2013-02-03 19:43:00,
2013-02-03 14:48:00,20.2,12.6,29.87,West,280,5.0,10.0,72,0.00,,---,0.00,VWS V14.00,2013-02-03 19:48:00,
2013-02-03 14:53:00,20.2,12.9,29.87,West,271,6.0,12.0,73,0.00,,---,0.00,VWS V14.00,2013-02-03 19:53:00,
2013-02-03 14:59:00,20.0,13.1,29.87,WNW,289,3.0,11.0,74,0.00,,---,0.00,VWS V14.00,2013-02-03 19:59:00,
2013-02-03 15:04:00,20.2,13.6,29.87,WSW,250,6.0,11.0,75,0.00,,---,0.00,VWS V14.00,2013-02-03 20:04:00,
2013-02-03 15:09:00,20.0,13.4,29.87,West,271,6.0,10.0,75,0.00,,---,0.00,VWS V14.00,2013-02-03 20:09:00,
2013-02-03 15:14:00,20.0,13.7,29.88,WNW,296,6.0,10.0,76,0.00,,---,0.00,VWS V14.00,2013-02-03 20:14:00,
2013-02-03 15:19:00,20.2,14.2,29.88,West,280,5.0,7.0,77,0.00,,---,0.00,VWS V14.00,2013-02-03 20:19:00,
2013-02-03 15:25:00,20.2,14.2,29.88,WSW,250,5.0,7.0,77,0.00,,---,0.00,VWS V14.00,2013-02-03 20:25:00,
2013-02-03 15:30:00,19.9,13.9,29.89,WNW,295,5.0,8.0,77,0.00,,---,0.00,VWS V14.00,2013-02-03 20:30:00,
2013-02-03 15:35:00,19.7,13.7,29.89,WNW,289,2.0,9.0,77,0.00,,---,0.00,VWS V14.00,2013-02-03 20:35:00,
2013-02-03 15:41:00,19.7,13.7,29.90,WNW,295,5.0,8.0,77,0.00,,---,0.00,VWS V14.00,2013-02-03 20:41:00,
2013-02-03 15:46:00,19.7,13.4,29.90,WNW,294,7.0,9.0,76,0.00,,---,0.00,VWS V14.00,2013-02-03 20:46:00,
2013-02-03 15:51:00,19.7,13.4,29.90,West,268,7.0,13.0,76,0.00,,---,0.00,VWS V14.00,2013-02-03 20:51:00,
2013-02-03 15:56:00,19.7,13.1,29.91,West,280,9.0,13.0,75,0.00,,---,0.00,VWS V14.00,2013-02-03 20:56:00,
2013-02-03 16:01:00,19.9,12.7,29.91,West,277,7.0,14.0,73,0.00,,---,0.00,VWS V14.00,2013-02-03 21:01:00,
2013-02-03 16:06:00,19.7,11.8,29.91,West,267,5.0,6.0,71,0.00,,---,0.00,VWS V14.00,2013-02-03 21:06:00,
2013-02-03 16:12:00,19.7,11.5,29.92,WNW,282,6.0,13.0,70,0.00,,---,0.00,VWS V14.00,2013-02-03 21:12:00,
2013-02-03 16:17:00,19.5,11.6,29.92,West,265,7.0,9.0,71,0.00,,---,0.00,VWS V14.00,2013-02-03 21:17:00,
2013-02-03 16:22:00,19.5,12.0,29.92,West,260,5.0,9.0,72,0.00,,---,0.00,VWS V14.00,2013-02-03 21:22:00,
2013-02-03 16:27:00,19.4,12.2,29.93,WSW,240,3.0,8.0,73,0.00,,---,0.00,VWS V14.00,2013-02-03 21:27:00,
2013-02-03 16:32:00,19.2,12.3,29.93,West,272,9.0,17.0,74,0.00,,---,0.00,VWS V14.00,2013-02-03 21:32:00,
2013-02-03 16:37:00,18.9,12.0,29.93,WSW,247,8.0,13.0,74,0.00,,---,0.00,VWS V14.00,2013-02-03 21:37:00,
2013-02-03 16:43:00,18.8,12.5,29.93,WSW,240,7.0,13.0,76,0.00,,---,0.00,VWS V14.00,2013-02-03 21:43:00,
2013-02-03 16:48:00,18.6,12.6,29.93,West,275,6.0,11.0,77,0.00,,---,0.00,VWS V14.00,2013-02-03 21:48:00,
2013-02-03 16:53:00,18.4,12.4,29.93,West,268,9.0,15.0,77,0.00,,---,0.00,VWS V14.00,2013-02-03 21:53:00,
2013-02-03 16:58:00,18.3,12.3,29.93,WSW,251,6.0,16.0,77,0.00,,---,0.00,VWS V14.00,2013-02-03 21:58:00,
2013-02-03 17:03:00,18.1,11.5,29.93,West,265,6.0,16.0,75,0.00,,---,0.00,VWS V14.00,2013-02-03 22:03:00,
2013-02-03 17:08:00,18.1,10.9,29.93,WSW,253,10.0,18.0,73,0.00,,---,0.00,VWS V14.00,2013-02-03 22:08:00,
2013-02-03 17:13:00,18.1,10.0,29.93,WSW,253,7.0,18.0,70,0.00,,---,0.00,VWS V14.00,2013-02-03 22:13:00,
2013-02-03 17:18:00,18.1,9.3,29.93,WNW,288,6.0,10.0,68,0.00,,---,0.00,VWS V14.00,2013-02-03 22:18:00,
2013-02-03 17:23:00,18.1,9.0,29.93,WNW,289,5.0,13.0,67,0.00,,---,0.00,VWS V14.00,2013-02-03 22:23:00,
2013-02-03 17:29:00,18.1,9.3,29.94,WNW,285,5.0,8.0,68,0.00,,---,0.00,VWS V14.00,2013-02-03 22:29:00,
2013-02-03 17:34:00,18.1,9.0,29.94,West,265,6.0,12.0,67,0.00,,---,0.00,VWS V14.00,2013-02-03 22:34:00,
2013-02-03 17:39:00,18.0,8.9,29.94,WNW,284,5.0,13.0,67,0.00,,---,0.00,VWS V14.00,2013-02-03 22:39:00,
2013-02-03 17:44:00,18.0,8.9,29.95,WSW,257,12.0,17.0,67,0.00,,---,0.00,VWS V14.00,2013-02-03 22:44:00,
2013-02-03 17:49:00,17.8,8.7,29.95,WNW,298,6.0,12.0,67,0.00,,---,0.00,VWS V14.00,2013-02-03 22:49:00,
2013-02-03 17:54:00,17.8,9.0,29.95,West,277,10.0,13.0,68,0.00,,---,0.00,VWS V14.00,2013-02-03 22:54:00,
2013-02-03 17:59:00,17.7,8.9,29.95,West,260,6.0,19.0,68,0.00,,---,0.00,VWS V14.00,2013-02-03 22:59:00,
2013-02-03 18:04:00,17.7,9.3,29.95,West,281,6.0,19.0,69,0.00,,---,0.00,VWS V14.00,2013-02-03 23:04:00,
2013-02-03 18:09:00,17.5,9.4,29.95,West,278,5.0,14.0,70,0.00,,---,0.00,VWS V14.00,2013-02-03 23:09:00,
2013-02-03 18:14:00,17.5,9.4,29.96,WSW,257,7.0,14.0,70,0.00,,---,0.00,VWS V14.00,2013-02-03 23:14:00,
2013-02-03 18:19:00,17.5,9.4,29.96,West,264,6.0,13.0,70,0.00,,---,0.00,VWS V14.00,2013-02-03 23:19:00,
2013-02-03 18:24:00,17.5,9.4,29.96,WNW,282,5.0,13.0,70,0.00,,---,0.00,VWS V14.00,2013-02-03 23:24:00,
2013-02-03 18:29:00,17.5,9.7,29.97,NW,311,5.0,11.0,71,0.00,,---,0.00,VWS V14.00,2013-02-03 23:29:00,
2013-02-03 18:34:00,17.5,9.7,29.97,West,275,5.0,11.0,71,0.00,,---,0.00,VWS V14.00,2013-02-03 23:34:00,
2013-02-03 18:40:00,17.5,9.7,29.97,SW,232,7.0,13.0,71,0.00,,---,0.00,VWS V14.00,2013-02-03 23:40:00,
2013-02-03 18:45:00,17.5,9.7,29.97,West,277,5.0,13.0,71,0.00,,---,0.00,VWS V14.00,2013-02-03 23:45:00,
2013-02-03 18:50:00,17.7,9.9,29.97,WSW,248,6.0,11.0,71,0.00,,---,0.00,VWS V14.00,2013-02-03 23:50:00,
2013-02-03 18:55:00,17.5,9.7,29.98,West,274,6.0,11.0,71,0.00,,---,0.00,VWS V14.00,2013-02-03 23:55:00,
2013-02-03 19:00:00,17.7,9.9,29.98,WNW,282,5.0,13.0,71,0.00,,---,0.00,VWS V14.00,2013-02-04 00:00:00,
2013-02-03 19:05:00,17.5,9.7,29.98,WSW,257,11.0,13.0,71,0.00,,---,0.00,VWS V14.00,2013-02-04 00:05:00,
2013-02-03 19:10:00,17.7,10.2,29.98,West,264,7.0,12.0,72,0.00,,---,0.00,VWS V14.00,2013-02-04 00:10:00,
2013-02-03 19:16:00,17.7,10.5,29.98,West,271,5.0,12.0,73,0.00,,---,0.00,VWS V14.00,2013-02-04 00:16:00,
2013-02-03 19:21:00,17.7,10.5,29.98,SW,230,9.0,11.0,73,0.00,,---,0.00,VWS V14.00,2013-02-04 00:21:00,
2013-02-03 19:26:00,17.7,10.8,29.99,West,265,4.0,11.0,74,0.00,,---,0.00,VWS V14.00,2013-02-04 00:26:00,
2013-02-03 19:31:00,17.8,10.9,29.99,West,263,6.0,7.0,74,0.00,,---,0.00,VWS V14.00,2013-02-04 00:31:00,
2013-02-03 19:36:00,17.8,10.9,29.99,West,270,3.0,5.0,74,0.00,,---,0.00,VWS V14.00,2013-02-04 00:36:00,
2013-02-03 19:41:00,18.0,11.1,29.99,West,272,5.0,14.0,74,0.00,,---,0.00,VWS V14.00,2013-02-04 00:41:00,
2013-02-03 19:46:00,18.0,11.4,29.99,West,280,5.0,8.0,75,0.00,,---,0.00,VWS V14.00,2013-02-04 00:46:00,
2013-02-03 19:51:00,18.1,11.5,29.99,SSW,192,7.0,11.0,75,0.00,,---,0.00,VWS V14.00,2013-02-04 00:51:00,
2013-02-03 19:56:00,18.1,11.5,30.00,West,267,4.0,6.0,75,0.00,,---,0.00,VWS V14.00,2013-02-04 00:56:00,
2013-02-03 20:01:00,18.1,11.5,30.00,West,265,5.0,11.0,75,0.00,,---,0.00,VWS V14.00,2013-02-04 01:01:00,
2013-02-03 20:07:00,18.3,12.0,30.00,West,263,5.0,8.0,76,0.00,,---,0.00,VWS V14.00,2013-02-04 01:07:00,
2013-02-03 20:12:00,18.3,12.0,30.00,West,275,6.0,10.0,76,0.00,,---,0.00,VWS V14.00,2013-02-04 01:12:00,
2013-02-03 20:17:00,18.4,11.8,30.00,West,271,3.0,11.0,75,0.00,,---,0.00,VWS V14.00,2013-02-04 01:17:00,
2013-02-03 20:22:00,18.4,11.8,30.00,West,271,10.0,12.0,75,0.00,,---,0.00,VWS V14.00,2013-02-04 01:22:00,
2013-02-03 20:27:00,18.4,11.8,30.00,West,267,5.0,13.0,75,0.00,,---,0.00,VWS V14.00,2013-02-04 01:27:00,
2013-02-03 20:32:00,18.4,11.8,30.00,West,263,11.0,17.0,75,0.00,,---,0.00,VWS V14.00,2013-02-04 01:32:00,
2013-02-03 20:37:00,18.4,11.8,30.00,West,271,5.0,6.0,75,0.00,,---,0.00,VWS V14.00,2013-02-04 01:37:00,
2013-02-03 20:43:00,18.3,12.0,30.01,WNW,282,2.0,9.0,76,0.00,,---,0.00,VWS V14.00,2013-02-04 01:43:00,
2013-02-03 20:48:00,18.3,12.0,30.01,West,267,7.0,8.0,76,0.00,,---,0.00,VWS V14.00,2013-02-04 01:48:00,
2013-02-03 20:53:00,18.3,12.0,30.01,WNW,294,11.0,11.0,76,0.00,,---,0.00,VWS V14.00,2013-02-04 01:53:00,
2013-02-03 20:58:00,18.3,12.0,30.01,SSW,210,6.0,13.0,76,0.00,,---,0.00,VWS V14.00,2013-02-04 01:58:00,
2013-02-03 21:03:00,18.3,12.0,30.01,West,271,5.0,13.0,76,0.00,,---,0.00,VWS V14.00,2013-02-04 02:03:00,
2013-02-03 21:09:00,18.3,12.0,30.01,West,271,5.0,11.0,76,0.00,,---,0.00,VWS V14.00,2013-02-04 02:09:00,
2013-02-03 21:14:00,18.1,11.8,30.01,West,270,9.0,13.0,76,0.00,,---,0.00,VWS V14.00,2013-02-04 02:14:00,
2013-02-03 21:19:00,18.1,11.5,30.01,WSW,239,6.0,10.0,75,0.00,,---,0.00,VWS V14.00,2013-02-04 02:19:00,
2013-02-03 21:24:00,18.0,11.7,30.01,West,267,5.0,12.0,76,0.00,,---,0.00,VWS V14.00,2013-02-04 02:24:00,
2013-02-03 21:29:00,18.0,11.4,30.01,West,280,5.0,11.0,75,0.00,,---,0.00,VWS V14.00,2013-02-04 02:29:00,
2013-02-03 21:35:00,18.0,11.4,30.01,West,265,4.0,11.0,75,0.00,,---,0.00,VWS V14.00,2013-02-04 02:35:00,
2013-02-03 21:40:00,17.8,11.2,30.02,West,265,5.0,12.0,75,0.00,,---,0.00,VWS V14.00,2013-02-04 02:40:00,
2013-02-03 21:45:00,17.8,11.2,30.02,WSW,256,6.0,12.0,75,0.00,,---,0.00,VWS V14.00,2013-02-04 02:45:00,
2013-02-03 21:50:00,17.7,11.1,30.02,West,272,5.0,9.0,75,0.00,,---,0.00,VWS V14.00,2013-02-04 02:50:00,
2013-02-03 21:55:00,17.7,11.1,30.03,WSW,250,6.0,13.0,75,0.00,,---,0.00,VWS V14.00,2013-02-04 02:55:00,
2013-02-03 22:00:00,17.5,11.2,30.03,WSW,253,8.0,11.0,76,0.00,,---,0.00,VWS V14.00,2013-02-04 03:00:00,
2013-02-03 22:05:00,17.3,11.1,30.03,West,272,6.0,12.0,76,0.00,,---,0.00,VWS V14.00,2013-02-04 03:05:00,
2013-02-03 22:11:00,17.3,11.1,30.03,West,263,5.0,10.0,76,0.00,,---,0.00,VWS V14.00,2013-02-04 03:11:00,
2013-02-03 22:16:00,17.2,11.2,30.03,WSW,256,6.0,10.0,77,0.00,,---,0.00,VWS V14.00,2013-02-04 03:16:00,
2013-02-03 22:21:00,17.2,11.2,30.03,West,260,6.0,10.0,77,0.00,,---,0.00,VWS V14.00,2013-02-04 03:21:00,
2013-02-03 22:26:00,17.2,11.5,30.02,WSW,248,7.0,7.0,78,0.00,,---,0.00,VWS V14.00,2013-02-04 03:26:00,
2013-02-03 22:31:00,17.2,11.5,30.02,WSW,244,8.0,10.0,78,0.00,,---,0.00,VWS V14.00,2013-02-04 03:31:00,
2013-02-03 22:36:00,17.3,11.6,30.02,WSW,241,8.0,12.0,78,0.00,,---,0.00,VWS V14.00,2013-02-04 03:36:00,
2013-02-03 22:41:00,17.2,11.5,30.03,WSW,258,5.0,12.0,78,0.00,,---,0.00,VWS V14.00,2013-02-04 03:41:00,
2013-02-03 22:46:00,17.2,11.5,30.03,West,265,3.0,6.0,78,0.00,,---,0.00,VWS V14.00,2013-02-04 03:46:00,
2013-02-03 22:51:00,17.2,11.8,30.03,WSW,247,6.0,11.0,79,0.00,,---,0.00,VWS V14.00,2013-02-04 03:51:00,
2013-02-03 22:57:00,17.2,11.8,30.02,West,263,3.0,6.0,79,0.00,,---,0.00,VWS V14.00,2013-02-04 03:57:00,
2013-02-03 23:02:00,17.0,11.9,30.02,West,268,3.0,9.0,80,0.00,,---,0.00,VWS V14.00,2013-02-04 04:02:00,
2013-02-03 23:07:00,16.7,11.6,30.02,WSW,256,4.0,6.0,80,0.00,,---,0.00,VWS V14.00,2013-02-04 04:07:00,
2013-02-03 23:12:00,16.9,11.8,30.03,SW,229,6.0,7.0,80,0.00,,---,0.00,VWS V14.00,2013-02-04 04:12:00,
2013-02-03 23:17:00,16.9,12.1,30.03,West,278,5.0,7.0,81,0.00,,---,0.00,VWS V14.00,2013-02-04 04:17:00,
2013-02-03 23:23:00,16.9,12.1,30.03,WSW,257,5.0,9.0,81,0.00,,---,0.00,VWS V14.00,2013-02-04 04:23:00,
2013-02-03 23:28:00,16.9,12.1,30.03,WSW,254,3.0,5.0,81,0.00,,---,0.00,VWS V14.00,2013-02-04 04:28:00,
2013-02-03 23:33:00,16.5,11.7,30.03,WSW,248,3.0,6.0,81,0.00,,---,0.00,VWS V14.00,2013-02-04 04:33:00,
2013-02-03 23:38:00,16.7,12.2,30.03,WSW,248,5.0,9.0,82,0.00,,---,0.00,VWS V14.00,2013-02-04 04:38:00,
2013-02-03 23:43:00,16.7,12.2,30.03,West,263,4.0,9.0,82,0.00,,---,0.00,VWS V14.00,2013-02-04 04:43:00,
2013-02-03 23:48:00,16.5,12.0,30.03,WSW,258,5.0,7.0,82,0.00,,---,0.00,VWS V14.00,2013-02-04 04:48:00,
2013-02-03 23:53:00,16.7,12.2,30.03,WSW,257,6.0,8.0,82,0.00,,---,0.00,VWS V14.00,2013-02-04 04:53:00,
2013-02-03 23:58:00,16.5,12.0,30.03,West,267,4.0,7.0,82,0.00,,---,0.00,VWS V14.00,2013-02-04 04:58:00,